Etusivu
METAR-TAF:

METAR-TAF

Lentoasemat :

New Ulm Municipal Airport

New Ulm, Minnesota, Yhdysvallat

Leveyspiiri: 44-19N, Pituuspiiri: 094-30W, korkeus merenpinnasta: 308 m

Tämänhetkinen sää

Tämä raportti tehtiin 16 minuuttia sitten, kello 23.55 UTC
Tuuli 18 kn pohjoisen/luoteesta puuskistuen 24 kn:hen
Lämpötila 18°C
Kosteus 26%
Ilmanpaine 1013 hPa
Näkyvyys: 16.1 km
selkeää

METAR: KULM 252355Z AUTO 33018G24KT 10SM CLR 18/M02 A2990 RMK AO2

Aika: 19:11 (00:11 UTC)


TAF: puuttuu

Säähavainnot ja -ennusteet yli 4000 lentoasemalta (METAR- ja TAF-raportit).

Käytössä olevat sääasemat on merkitty karttaan keltaisilla ja punaisilla pisteillä.

Aseta hiiri pisteen päälle nähdäksesi sääaseman nimen.

Klikkaa sitten nähdäksesi säähavainnot ja -ennusteet.

Kartan vaihtaminen: klikkaa mustalla rastilla varustettuja vihreitä pisteitä, niin voit zoomata sisään; viivalla varustettua vihreää pistettä, niin voit zoomata ulos tai vihreitä nuolia, niin pääset viereisille kartoille.


METAR-TAF: